sensor_id;sensor_type;location;lat;lon;timestamp;P1;durP1;ratioP1;P2;durP2;ratioP2
12042;SDS011;6082;49.306;12.862;2024-02-28T00:01:24;43.77;;;19.40;;
12042;SDS011;6082;49.306;12.862;2024-02-28T00:03:51;45.13;;;20.00;;
12042;SDS011;6082;49.306;12.862;2024-02-28T00:06:17;46.03;;;19.77;;
12042;SDS011;6082;49.306;12.862;2024-02-28T00:08:43;45.27;;;21.03;;
12042;SDS011;6082;49.306;12.862;2024-02-28T00:11:12;41.60;;;19.13;;
12042;SDS011;6082;49.306;12.862;2024-02-28T00:13:38;40.57;;;20.13;;
12042;SDS011;6082;49.306;12.862;2024-02-28T00:16:03;47.90;;;19.70;;
12042;SDS011;6082;49.306;12.862;2024-02-28T00:18:29;44.63;;;19.07;;
12042;SDS011;6082;49.306;12.862;2024-02-28T00:20:56;44.93;;;19.27;;
12042;SDS011;6082;49.306;12.862;2024-02-28T00:23:22;40.83;;;18.43;;
12042;SDS011;6082;49.306;12.862;2024-02-28T00:25:47;46.20;;;18.83;;
12042;SDS011;6082;49.306;12.862;2024-02-28T00:28:13;45.00;;;21.03;;
12042;SDS011;6082;49.306;12.862;2024-02-28T00:30:39;43.93;;;18.93;;
12042;SDS011;6082;49.306;12.862;2024-02-28T00:33:06;42.67;;;18.57;;
12042;SDS011;6082;49.306;12.862;2024-02-28T00:35:32;45.70;;;19.80;;
12042;SDS011;6082;49.306;12.862;2024-02-28T00:37:58;44.63;;;19.97;;
12042;SDS011;6082;49.306;12.862;2024-02-28T00:40:24;43.07;;;18.40;;
12042;SDS011;6082;49.306;12.862;2024-02-28T00:42:50;39.30;;;19.37;;
12042;SDS011;6082;49.306;12.862;2024-02-28T00:45:16;46.37;;;19.37;;
12042;SDS011;6082;49.306;12.862;2024-02-28T00:47:42;44.37;;;18.63;;
12042;SDS011;6082;49.306;12.862;2024-02-28T00:50:08;43.53;;;18.40;;
12042;SDS011;6082;49.306;12.862;2024-02-28T00:52:34;44.97;;;17.73;;
12042;SDS011;6082;49.306;12.862;2024-02-28T00:55:00;41.20;;;18.97;;
12042;SDS011;6082;49.306;12.862;2024-02-28T00:57:26;38.93;;;18.67;;
12042;SDS011;6082;49.306;12.862;2024-02-28T00:59:52;46.70;;;18.47;;
12042;SDS011;6082;49.306;12.862;2024-02-28T01:02:19;45.07;;;19.50;;
12042;SDS011;6082;49.306;12.862;2024-02-28T01:04:46;43.17;;;18.43;;
12042;SDS011;6082;49.306;12.862;2024-02-28T01:07:11;41.70;;;17.53;;
12042;SDS011;6082;49.306;12.862;2024-02-28T01:09:37;37.67;;;17.83;;
12042;SDS011;6082;49.306;12.862;2024-02-28T01:12:03;37.77;;;16.43;;
12042;SDS011;6082;49.306;12.862;2024-02-28T01:14:29;38.63;;;16.10;;
12042;SDS011;6082;49.306;12.862;2024-02-28T01:16:55;34.50;;;17.20;;
12042;SDS011;6082;49.306;12.862;2024-02-28T01:19:21;43.23;;;18.07;;
12042;SDS011;6082;49.306;12.862;2024-02-28T01:21:47;38.93;;;17.70;;
12042;SDS011;6082;49.306;12.862;2024-02-28T01:24:12;34.57;;;15.57;;
12042;SDS011;6082;49.306;12.862;2024-02-28T01:26:38;36.63;;;17.07;;
12042;SDS011;6082;49.306;12.862;2024-02-28T01:29:05;40.67;;;17.40;;
12042;SDS011;6082;49.306;12.862;2024-02-28T01:31:30;40.43;;;15.93;;
12042;SDS011;6082;49.306;12.862;2024-02-28T01:33:56;37.50;;;16.17;;
12042;SDS011;6082;49.306;12.862;2024-02-28T01:36:23;34.57;;;16.33;;
12042;SDS011;6082;49.306;12.862;2024-02-28T01:38:48;37.63;;;16.40;;
12042;SDS011;6082;49.306;12.862;2024-02-28T01:41:14;38.27;;;16.27;;
12042;SDS011;6082;49.306;12.862;2024-02-28T01:43:40;39.10;;;16.83;;
12042;SDS011;6082;49.306;12.862;2024-02-28T01:46:13;34.83;;;16.90;;
12042;SDS011;6082;49.306;12.862;2024-02-28T01:48:44;37.93;;;16.83;;
12042;SDS011;6082;49.306;12.862;2024-02-28T01:51:11;42.17;;;17.03;;
12042;SDS011;6082;49.306;12.862;2024-02-28T01:53:37;38.87;;;16.40;;
12042;SDS011;6082;49.306;12.862;2024-02-28T01:56:03;37.03;;;16.33;;
12042;SDS011;6082;49.306;12.862;2024-02-28T01:58:29;37.17;;;17.27;;
12042;SDS011;6082;49.306;12.862;2024-02-28T02:00:55;34.60;;;15.57;;
12042;SDS011;6082;49.306;12.862;2024-02-28T02:03:23;35.73;;;16.07;;
12042;SDS011;6082;49.306;12.862;2024-02-28T02:05:48;37.07;;;16.67;;
12042;SDS011;6082;49.306;12.862;2024-02-28T02:08:14;35.00;;;15.80;;
12042;SDS011;6082;49.306;12.862;2024-02-28T02:10:40;33.93;;;14.93;;
12042;SDS011;6082;49.306;12.862;2024-02-28T02:13:06;40.57;;;17.23;;
12042;SDS011;6082;49.306;12.862;2024-02-28T02:15:32;40.97;;;17.17;;
12042;SDS011;6082;49.306;12.862;2024-02-28T02:17:58;37.43;;;16.47;;
12042;SDS011;6082;49.306;12.862;2024-02-28T02:20:25;36.27;;;16.23;;
12042;SDS011;6082;49.306;12.862;2024-02-28T02:22:52;38.03;;;16.80;;
12042;SDS011;6082;49.306;12.862;2024-02-28T02:25:18;36.97;;;15.90;;
12042;SDS011;6082;49.306;12.862;2024-02-28T02:27:44;35.20;;;16.43;;
12042;SDS011;6082;49.306;12.862;2024-02-28T02:30:10;36.50;;;16.30;;
12042;SDS011;6082;49.306;12.862;2024-02-28T02:32:36;35.20;;;16.37;;
12042;SDS011;6082;49.306;12.862;2024-02-28T02:35:02;36.13;;;15.80;;
12042;SDS011;6082;49.306;12.862;2024-02-28T02:37:27;37.03;;;17.50;;
12042;SDS011;6082;49.306;12.862;2024-02-28T02:39:53;42.03;;;18.23;;
12042;SDS011;6082;49.306;12.862;2024-02-28T02:42:19;38.83;;;15.83;;
12042;SDS011;6082;49.306;12.862;2024-02-28T02:44:45;36.37;;;16.57;;
12042;SDS011;6082;49.306;12.862;2024-02-28T02:47:10;47.53;;;17.33;;
12042;SDS011;6082;49.306;12.862;2024-02-28T02:49:36;38.73;;;15.50;;
12042;SDS011;6082;49.306;12.862;2024-02-28T02:52:02;42.47;;;17.83;;
12042;SDS011;6082;49.306;12.862;2024-02-28T02:54:27;43.10;;;17.63;;
12042;SDS011;6082;49.306;12.862;2024-02-28T02:56:53;37.50;;;16.93;;
12042;SDS011;6082;49.306;12.862;2024-02-28T02:59:19;39.17;;;15.30;;
12042;SDS011;6082;49.306;12.862;2024-02-28T03:01:46;31.17;;;15.43;;
12042;SDS011;6082;49.306;12.862;2024-02-28T03:04:13;38.13;;;16.27;;
12042;SDS011;6082;49.306;12.862;2024-02-28T03:06:39;33.07;;;14.93;;
12042;SDS011;6082;49.306;12.862;2024-02-28T03:09:04;39.97;;;16.67;;
12042;SDS011;6082;49.306;12.862;2024-02-28T03:11:32;35.60;;;16.13;;
12042;SDS011;6082;49.306;12.862;2024-02-28T03:14:00;37.17;;;16.33;;
12042;SDS011;6082;49.306;12.862;2024-02-28T03:16:26;39.10;;;15.60;;
12042;SDS011;6082;49.306;12.862;2024-02-28T03:18:51;39.30;;;15.77;;
12042;SDS011;6082;49.306;12.862;2024-02-28T03:21:18;35.13;;;16.03;;
12042;SDS011;6082;49.306;12.862;2024-02-28T03:23:45;39.70;;;16.37;;
12042;SDS011;6082;49.306;12.862;2024-02-28T03:26:11;35.90;;;16.17;;
12042;SDS011;6082;49.306;12.862;2024-02-28T03:28:37;35.17;;;17.57;;
12042;SDS011;6082;49.306;12.862;2024-02-28T03:31:02;34.67;;;15.10;;
12042;SDS011;6082;49.306;12.862;2024-02-28T03:33:28;32.60;;;15.37;;
12042;SDS011;6082;49.306;12.862;2024-02-28T03:35:56;35.60;;;15.40;;
12042;SDS011;6082;49.306;12.862;2024-02-28T03:38:22;29.47;;;15.23;;
12042;SDS011;6082;49.306;12.862;2024-02-28T03:40:48;39.30;;;15.37;;
12042;SDS011;6082;49.306;12.862;2024-02-28T03:43:13;35.63;;;15.40;;
12042;SDS011;6082;49.306;12.862;2024-02-28T03:45:39;35.10;;;16.27;;
12042;SDS011;6082;49.306;12.862;2024-02-28T03:48:05;34.63;;;14.07;;
12042;SDS011;6082;49.306;12.862;2024-02-28T03:50:31;36.17;;;15.70;;
12042;SDS011;6082;49.306;12.862;2024-02-28T03:52:57;32.27;;;14.27;;
12042;SDS011;6082;49.306;12.862;2024-02-28T03:55:22;35.20;;;14.47;;
12042;SDS011;6082;49.306;12.862;2024-02-28T03:57:48;34.37;;;14.87;;
12042;SDS011;6082;49.306;12.862;2024-02-28T04:00:16;38.80;;;16.43;;
12042;SDS011;6082;49.306;12.862;2024-02-28T04:02:42;38.13;;;16.23;;
12042;SDS011;6082;49.306;12.862;2024-02-28T04:05:08;31.87;;;13.50;;
12042;SDS011;6082;49.306;12.862;2024-02-28T04:07:34;32.20;;;14.20;;
12042;SDS011;6082;49.306;12.862;2024-02-28T04:09:59;31.40;;;13.93;;
12042;SDS011;6082;49.306;12.862;2024-02-28T04:12:25;32.23;;;14.13;;
12042;SDS011;6082;49.306;12.862;2024-02-28T04:14:51;32.53;;;14.60;;
12042;SDS011;6082;49.306;12.862;2024-02-28T04:17:16;32.70;;;14.03;;
12042;SDS011;6082;49.306;12.862;2024-02-28T04:19:42;29.60;;;13.93;;
12042;SDS011;6082;49.306;12.862;2024-02-28T04:22:08;31.13;;;13.47;;
12042;SDS011;6082;49.306;12.862;2024-02-28T04:24:33;28.37;;;12.67;;
12042;SDS011;6082;49.306;12.862;2024-02-28T04:26:59;26.67;;;12.27;;
12042;SDS011;6082;49.306;12.862;2024-02-28T04:29:25;29.47;;;12.67;;
12042;SDS011;6082;49.306;12.862;2024-02-28T04:31:51;25.87;;;12.77;;
12042;SDS011;6082;49.306;12.862;2024-02-28T04:34:16;29.60;;;14.23;;
12042;SDS011;6082;49.306;12.862;2024-02-28T04:36:42;27.10;;;13.30;;
12042;SDS011;6082;49.306;12.862;2024-02-28T04:39:08;27.27;;;12.47;;
12042;SDS011;6082;49.306;12.862;2024-02-28T04:41:33;28.03;;;13.33;;
12042;SDS011;6082;49.306;12.862;2024-02-28T04:43:59;33.90;;;12.60;;
12042;SDS011;6082;49.306;12.862;2024-02-28T04:46:25;25.60;;;13.27;;
12042;SDS011;6082;49.306;12.862;2024-02-28T04:48:50;30.20;;;12.97;;
12042;SDS011;6082;49.306;12.862;2024-02-28T04:51:16;23.40;;;11.27;;
12042;SDS011;6082;49.306;12.862;2024-02-28T04:53:42;26.60;;;12.07;;
12042;SDS011;6082;49.306;12.862;2024-02-28T04:56:08;26.57;;;12.43;;
12042;SDS011;6082;49.306;12.862;2024-02-28T04:58:35;28.87;;;12.30;;
12042;SDS011;6082;49.306;12.862;2024-02-28T05:01:01;32.07;;;13.17;;
12042;SDS011;6082;49.306;12.862;2024-02-28T05:03:28;22.13;;;11.33;;
12042;SDS011;6082;49.306;12.862;2024-02-28T05:05:54;31.50;;;13.47;;
12042;SDS011;6082;49.306;12.862;2024-02-28T05:08:20;25.17;;;11.53;;
12042;SDS011;6082;49.306;12.862;2024-02-28T05:10:46;26.90;;;11.43;;
12042;SDS011;6082;49.306;12.862;2024-02-28T05:13:12;29.73;;;13.73;;
12042;SDS011;6082;49.306;12.862;2024-02-28T05:15:37;28.43;;;11.83;;
12042;SDS011;6082;49.306;12.862;2024-02-28T05:18:03;24.10;;;11.80;;
12042;SDS011;6082;49.306;12.862;2024-02-28T05:20:29;26.87;;;12.37;;
12042;SDS011;6082;49.306;12.862;2024-02-28T05:22:55;24.07;;;11.17;;
12042;SDS011;6082;49.306;12.862;2024-02-28T05:25:20;29.20;;;11.97;;
12042;SDS011;6082;49.306;12.862;2024-02-28T05:27:46;26.27;;;11.67;;
12042;SDS011;6082;49.306;12.862;2024-02-28T05:30:12;26.30;;;12.67;;
12042;SDS011;6082;49.306;12.862;2024-02-28T05:32:38;27.63;;;13.13;;
12042;SDS011;6082;49.306;12.862;2024-02-28T05:35:04;26.40;;;11.43;;
12042;SDS011;6082;49.306;12.862;2024-02-28T05:37:30;28.90;;;11.87;;
12042;SDS011;6082;49.306;12.862;2024-02-28T05:39:55;25.57;;;12.03;;
12042;SDS011;6082;49.306;12.862;2024-02-28T05:42:21;26.23;;;13.50;;
12042;SDS011;6082;49.306;12.862;2024-02-28T05:44:50;26.83;;;12.63;;
12042;SDS011;6082;49.306;12.862;2024-02-28T05:47:16;26.90;;;11.90;;
12042;SDS011;6082;49.306;12.862;2024-02-28T05:49:42;24.53;;;11.57;;
12042;SDS011;6082;49.306;12.862;2024-02-28T05:52:07;29.67;;;12.07;;
12042;SDS011;6082;49.306;12.862;2024-02-28T05:54:34;28.17;;;11.77;;
12042;SDS011;6082;49.306;12.862;2024-02-28T05:57:00;24.33;;;12.10;;
12042;SDS011;6082;49.306;12.862;2024-02-28T05:59:25;26.97;;;11.03;;
12042;SDS011;6082;49.306;12.862;2024-02-28T06:01:51;24.57;;;11.83;;
12042;SDS011;6082;49.306;12.862;2024-02-28T06:04:17;26.50;;;11.93;;
12042;SDS011;6082;49.306;12.862;2024-02-28T06:06:43;26.20;;;12.67;;
12042;SDS011;6082;49.306;12.862;2024-02-28T06:09:08;27.93;;;12.90;;
12042;SDS011;6082;49.306;12.862;2024-02-28T06:11:35;20.93;;;11.13;;
12042;SDS011;6082;49.306;12.862;2024-02-28T06:14:01;25.73;;;11.87;;
12042;SDS011;6082;49.306;12.862;2024-02-28T06:16:29;22.43;;;10.67;;
12042;SDS011;6082;49.306;12.862;2024-02-28T06:18:55;24.03;;;10.67;;
12042;SDS011;6082;49.306;12.862;2024-02-28T06:21:23;24.73;;;11.67;;
12042;SDS011;6082;49.306;12.862;2024-02-28T06:23:50;21.67;;;11.23;;
12042;SDS011;6082;49.306;12.862;2024-02-28T06:26:15;19.53;;;9.47;;
12042;SDS011;6082;49.306;12.862;2024-02-28T06:28:45;19.10;;;10.40;;
12042;SDS011;6082;49.306;12.862;2024-02-28T06:31:14;21.20;;;9.70;;
12042;SDS011;6082;49.306;12.862;2024-02-28T06:33:41;20.63;;;9.43;;
12042;SDS011;6082;49.306;12.862;2024-02-28T06:36:07;18.83;;;10.20;;
12042;SDS011;6082;49.306;12.862;2024-02-28T06:38:33;21.73;;;10.00;;
12042;SDS011;6082;49.306;12.862;2024-02-28T06:41:01;17.50;;;9.03;;
12042;SDS011;6082;49.306;12.862;2024-02-28T06:43:33;18.77;;;9.03;;
12042;SDS011;6082;49.306;12.862;2024-02-28T06:46:00;17.27;;;9.07;;
12042;SDS011;6082;49.306;12.862;2024-02-28T06:48:27;19.23;;;8.87;;
12042;SDS011;6082;49.306;12.862;2024-02-28T06:50:53;19.53;;;9.50;;
12042;SDS011;6082;49.306;12.862;2024-02-28T06:53:18;17.67;;;9.40;;
12042;SDS011;6082;49.306;12.862;2024-02-28T06:55:44;14.23;;;8.07;;
12042;SDS011;6082;49.306;12.862;2024-02-28T06:58:10;17.43;;;9.93;;
12042;SDS011;6082;49.306;12.862;2024-02-28T07:00:36;22.27;;;11.03;;
12042;SDS011;6082;49.306;12.862;2024-02-28T07:03:02;19.20;;;10.17;;
12042;SDS011;6082;49.306;12.862;2024-02-28T07:05:29;18.67;;;9.93;;
12042;SDS011;6082;49.306;12.862;2024-02-28T07:07:55;19.43;;;9.80;;
12042;SDS011;6082;49.306;12.862;2024-02-28T07:10:20;18.63;;;9.73;;
12042;SDS011;6082;49.306;12.862;2024-02-28T07:12:46;19.10;;;10.43;;
12042;SDS011;6082;49.306;12.862;2024-02-28T07:15:12;22.63;;;12.07;;
12042;SDS011;6082;49.306;12.862;2024-02-28T07:17:37;26.40;;;12.83;;
12042;SDS011;6082;49.306;12.862;2024-02-28T07:20:03;19.67;;;10.30;;
12042;SDS011;6082;49.306;12.862;2024-02-28T07:22:29;24.13;;;12.20;;
12042;SDS011;6082;49.306;12.862;2024-02-28T07:24:55;21.97;;;10.70;;
12042;SDS011;6082;49.306;12.862;2024-02-28T07:27:24;20.83;;;11.17;;
12042;SDS011;6082;49.306;12.862;2024-02-28T07:29:50;15.73;;;9.20;;
12042;SDS011;6082;49.306;12.862;2024-02-28T07:32:15;15.73;;;9.80;;
12042;SDS011;6082;49.306;12.862;2024-02-28T07:34:41;16.47;;;9.67;;
12042;SDS011;6082;49.306;12.862;2024-02-28T07:37:07;18.20;;;9.47;;
12042;SDS011;6082;49.306;12.862;2024-02-28T07:39:33;18.73;;;10.07;;
12042;SDS011;6082;49.306;12.862;2024-02-28T07:41:58;17.60;;;9.77;;
12042;SDS011;6082;49.306;12.862;2024-02-28T07:44:25;17.17;;;9.47;;
12042;SDS011;6082;49.306;12.862;2024-02-28T07:46:51;17.70;;;9.03;;
12042;SDS011;6082;49.306;12.862;2024-02-28T07:49:17;18.13;;;9.60;;
12042;SDS011;6082;49.306;12.862;2024-02-28T07:51:42;17.13;;;9.47;;
12042;SDS011;6082;49.306;12.862;2024-02-28T07:54:08;17.73;;;9.10;;
12042;SDS011;6082;49.306;12.862;2024-02-28T07:56:34;15.17;;;9.17;;
12042;SDS011;6082;49.306;12.862;2024-02-28T07:58:59;17.80;;;9.90;;
12042;SDS011;6082;49.306;12.862;2024-02-28T08:01:25;18.17;;;9.07;;
12042;SDS011;6082;49.306;12.862;2024-02-28T08:03:51;19.47;;;10.93;;
12042;SDS011;6082;49.306;12.862;2024-02-28T08:06:17;18.37;;;9.47;;
12042;SDS011;6082;49.306;12.862;2024-02-28T08:08:45;17.90;;;9.53;;
12042;SDS011;6082;49.306;12.862;2024-02-28T08:11:12;23.87;;;10.53;;
12042;SDS011;6082;49.306;12.862;2024-02-28T08:13:38;19.87;;;9.53;;
12042;SDS011;6082;49.306;12.862;2024-02-28T08:16:03;18.33;;;9.77;;
12042;SDS011;6082;49.306;12.862;2024-02-28T08:18:29;16.20;;;9.60;;
12042;SDS011;6082;49.306;12.862;2024-02-28T08:20:55;16.50;;;9.10;;
12042;SDS011;6082;49.306;12.862;2024-02-28T08:23:22;19.03;;;10.33;;
12042;SDS011;6082;49.306;12.862;2024-02-28T08:25:48;18.33;;;9.63;;
12042;SDS011;6082;49.306;12.862;2024-02-28T08:28:14;18.90;;;10.00;;
12042;SDS011;6082;49.306;12.862;2024-02-28T08:30:40;16.30;;;8.97;;
12042;SDS011;6082;49.306;12.862;2024-02-28T08:33:06;16.37;;;8.87;;
12042;SDS011;6082;49.306;12.862;2024-02-28T08:35:34;19.53;;;10.27;;
12042;SDS011;6082;49.306;12.862;2024-02-28T08:37:59;18.80;;;9.80;;
12042;SDS011;6082;49.306;12.862;2024-02-28T08:40:25;17.63;;;8.73;;
12042;SDS011;6082;49.306;12.862;2024-02-28T08:42:51;17.40;;;9.13;;
12042;SDS011;6082;49.306;12.862;2024-02-28T08:45:18;16.70;;;9.13;;
12042;SDS011;6082;49.306;12.862;2024-02-28T08:47:43;16.97;;;9.63;;
12042;SDS011;6082;49.306;12.862;2024-02-28T08:50:09;17.17;;;9.00;;
12042;SDS011;6082;49.306;12.862;2024-02-28T08:52:36;14.53;;;8.73;;
12042;SDS011;6082;49.306;12.862;2024-02-28T08:55:01;14.73;;;8.47;;
12042;SDS011;6082;49.306;12.862;2024-02-28T08:57:28;19.17;;;10.27;;
12042;SDS011;6082;49.306;12.862;2024-02-28T08:59:55;16.07;;;9.60;;
12042;SDS011;6082;49.306;12.862;2024-02-28T09:02:21;18.47;;;10.07;;
12042;SDS011;6082;49.306;12.862;2024-02-28T09:04:46;20.40;;;8.90;;
12042;SDS011;6082;49.306;12.862;2024-02-28T09:07:17;15.97;;;8.10;;
12042;SDS011;6082;49.306;12.862;2024-02-28T09:09:44;16.10;;;8.83;;
12042;SDS011;6082;49.306;12.862;2024-02-28T09:12:10;16.43;;;9.30;;
12042;SDS011;6082;49.306;12.862;2024-02-28T09:14:36;18.03;;;9.37;;
12042;SDS011;6082;49.306;12.862;2024-02-28T09:17:03;15.73;;;8.40;;
12042;SDS011;6082;49.306;12.862;2024-02-28T09:19:30;14.83;;;8.50;;
12042;SDS011;6082;49.306;12.862;2024-02-28T09:21:56;17.40;;;9.07;;
12042;SDS011;6082;49.306;12.862;2024-02-28T09:24:22;15.37;;;8.73;;
12042;SDS011;6082;49.306;12.862;2024-02-28T09:26:48;17.97;;;9.50;;
12042;SDS011;6082;49.306;12.862;2024-02-28T09:29:14;18.70;;;10.00;;
12042;SDS011;6082;49.306;12.862;2024-02-28T09:31:40;16.77;;;8.67;;
12042;SDS011;6082;49.306;12.862;2024-02-28T09:34:06;15.50;;;7.97;;
12042;SDS011;6082;49.306;12.862;2024-02-28T09:36:41;16.33;;;9.27;;
12042;SDS011;6082;49.306;12.862;2024-02-28T09:39:08;21.60;;;9.50;;
12042;SDS011;6082;49.306;12.862;2024-02-28T09:41:34;14.60;;;8.23;;
12042;SDS011;6082;49.306;12.862;2024-02-28T09:44:00;18.20;;;9.87;;
12042;SDS011;6082;49.306;12.862;2024-02-28T09:46:27;16.63;;;9.37;;
12042;SDS011;6082;49.306;12.862;2024-02-28T09:48:54;15.33;;;8.13;;
12042;SDS011;6082;49.306;12.862;2024-02-28T09:51:21;22.23;;;9.83;;
12042;SDS011;6082;49.306;12.862;2024-02-28T09:53:49;18.13;;;9.30;;
12042;SDS011;6082;49.306;12.862;2024-02-28T09:56:15;20.00;;;9.03;;
12042;SDS011;6082;49.306;12.862;2024-02-28T09:58:41;17.37;;;8.97;;
12042;SDS011;6082;49.306;12.862;2024-02-28T10:01:08;18.57;;;8.40;;
12042;SDS011;6082;49.306;12.862;2024-02-28T10:03:36;16.20;;;8.90;;
12042;SDS011;6082;49.306;12.862;2024-02-28T10:06:03;15.63;;;8.40;;
12042;SDS011;6082;49.306;12.862;2024-02-28T10:08:29;17.17;;;9.20;;
12042;SDS011;6082;49.306;12.862;2024-02-28T10:10:54;18.93;;;9.37;;
12042;SDS011;6082;49.306;12.862;2024-02-28T10:13:22;19.30;;;9.20;;
12042;SDS011;6082;49.306;12.862;2024-02-28T10:15:49;20.23;;;9.63;;
12042;SDS011;6082;49.306;12.862;2024-02-28T10:18:14;16.03;;;8.83;;
12042;SDS011;6082;49.306;12.862;2024-02-28T10:20:41;16.70;;;9.63;;
12042;SDS011;6082;49.306;12.862;2024-02-28T10:23:07;18.90;;;8.77;;
12042;SDS011;6082;49.306;12.862;2024-02-28T10:25:44;15.03;;;8.20;;
12042;SDS011;6082;49.306;12.862;2024-02-28T10:28:10;16.17;;;8.67;;
12042;SDS011;6082;49.306;12.862;2024-02-28T10:30:42;14.03;;;7.90;;
12042;SDS011;6082;49.306;12.862;2024-02-28T10:33:15;12.97;;;7.73;;
12042;SDS011;6082;49.306;12.862;2024-02-28T10:35:41;12.60;;;7.60;;
12042;SDS011;6082;49.306;12.862;2024-02-28T10:38:12;13.43;;;7.30;;
12042;SDS011;6082;49.306;12.862;2024-02-28T10:40:41;12.77;;;7.57;;
12042;SDS011;6082;49.306;12.862;2024-02-28T10:43:10;13.37;;;7.33;;
12042;SDS011;6082;49.306;12.862;2024-02-28T10:45:37;12.33;;;7.23;;
12042;SDS011;6082;49.306;12.862;2024-02-28T10:48:06;12.93;;;7.20;;
12042;SDS011;6082;49.306;12.862;2024-02-28T10:50:33;12.67;;;7.20;;
12042;SDS011;6082;49.306;12.862;2024-02-28T10:53:02;13.27;;;6.80;;
12042;SDS011;6082;49.306;12.862;2024-02-28T10:55:36;14.17;;;7.17;;
12042;SDS011;6082;49.306;12.862;2024-02-28T10:58:09;14.40;;;7.20;;
12042;SDS011;6082;49.306;12.862;2024-02-28T11:00:36;15.10;;;7.30;;
12042;SDS011;6082;49.306;12.862;2024-02-28T11:03:04;12.80;;;7.13;;
12042;SDS011;6082;49.306;12.862;2024-02-28T11:05:38;14.33;;;7.20;;
12042;SDS011;6082;49.306;12.862;2024-02-28T11:08:08;13.97;;;7.63;;
12042;SDS011;6082;49.306;12.862;2024-02-28T11:10:35;12.83;;;6.73;;
12042;SDS011;6082;49.306;12.862;2024-02-28T11:13:05;14.27;;;7.80;;
12042;SDS011;6082;49.306;12.862;2024-02-28T11:15:30;15.53;;;7.83;;
12042;SDS011;6082;49.306;12.862;2024-02-28T11:18:06;14.23;;;7.57;;
12042;SDS011;6082;49.306;12.862;2024-02-28T11:20:35;18.60;;;9.33;;
12042;SDS011;6082;49.306;12.862;2024-02-28T11:23:01;15.00;;;8.00;;
12042;SDS011;6082;49.306;12.862;2024-02-28T11:25:27;12.20;;;6.30;;
12042;SDS011;6082;49.306;12.862;2024-02-28T11:27:53;13.13;;;7.17;;
12042;SDS011;6082;49.306;12.862;2024-02-28T11:30:19;13.73;;;6.77;;
12042;SDS011;6082;49.306;12.862;2024-02-28T11:32:46;14.53;;;7.73;;
12042;SDS011;6082;49.306;12.862;2024-02-28T11:35:12;13.77;;;8.03;;
12042;SDS011;6082;49.306;12.862;2024-02-28T11:37:38;13.03;;;7.83;;
12042;SDS011;6082;49.306;12.862;2024-02-28T11:40:08;14.10;;;7.63;;
12042;SDS011;6082;49.306;12.862;2024-02-28T11:42:35;13.57;;;7.60;;
12042;SDS011;6082;49.306;12.862;2024-02-28T11:45:04;13.70;;;7.57;;
12042;SDS011;6082;49.306;12.862;2024-02-28T11:47:34;13.97;;;7.63;;
12042;SDS011;6082;49.306;12.862;2024-02-28T11:50:03;14.30;;;8.43;;
12042;SDS011;6082;49.306;12.862;2024-02-28T11:52:35;12.23;;;7.60;;
12042;SDS011;6082;49.306;12.862;2024-02-28T11:55:02;15.13;;;7.87;;
12042;SDS011;6082;49.306;12.862;2024-02-28T11:57:28;14.13;;;7.80;;
12042;SDS011;6082;49.306;12.862;2024-02-28T11:59:56;16.57;;;8.30;;
12042;SDS011;6082;49.306;12.862;2024-02-28T12:02:22;16.10;;;8.30;;
12042;SDS011;6082;49.306;12.862;2024-02-28T12:04:52;12.57;;;7.70;;
12042;SDS011;6082;49.306;12.862;2024-02-28T12:07:19;13.53;;;7.60;;
12042;SDS011;6082;49.306;12.862;2024-02-28T12:09:46;13.87;;;7.87;;
12042;SDS011;6082;49.306;12.862;2024-02-28T12:12:13;14.73;;;8.03;;
12042;SDS011;6082;49.306;12.862;2024-02-28T12:14:39;15.20;;;8.03;;
12042;SDS011;6082;49.306;12.862;2024-02-28T12:17:05;13.43;;;7.83;;
12042;SDS011;6082;49.306;12.862;2024-02-28T12:19:31;16.70;;;8.57;;
12042;SDS011;6082;49.306;12.862;2024-02-28T12:21:56;17.10;;;9.13;;
12042;SDS011;6082;49.306;12.862;2024-02-28T12:24:23;16.70;;;8.13;;
12042;SDS011;6082;49.306;12.862;2024-02-28T12:26:49;16.53;;;9.47;;
12042;SDS011;6082;49.306;12.862;2024-02-28T12:29:15;14.70;;;8.80;;
12042;SDS011;6082;49.306;12.862;2024-02-28T12:31:40;19.73;;;9.10;;
12042;SDS011;6082;49.306;12.862;2024-02-28T12:34:06;17.10;;;9.17;;
12042;SDS011;6082;49.306;12.862;2024-02-28T12:36:32;14.47;;;8.70;;
12042;SDS011;6082;49.306;12.862;2024-02-28T12:38:59;15.70;;;8.57;;
12042;SDS011;6082;49.306;12.862;2024-02-28T12:41:25;16.33;;;8.60;;
12042;SDS011;6082;49.306;12.862;2024-02-28T12:43:53;16.37;;;8.37;;
12042;SDS011;6082;49.306;12.862;2024-02-28T12:46:19;15.10;;;8.10;;
12042;SDS011;6082;49.306;12.862;2024-02-28T12:48:45;17.20;;;9.43;;
12042;SDS011;6082;49.306;12.862;2024-02-28T12:54:04;15.63;;;7.77;;
12042;SDS011;6082;49.306;12.862;2024-02-28T12:56:30;13.00;;;7.47;;
12042;SDS011;6082;49.306;12.862;2024-02-28T12:58:56;19.20;;;10.30;;
12042;SDS011;6082;49.306;12.862;2024-02-28T13:01:22;16.10;;;8.57;;
12042;SDS011;6082;49.306;12.862;2024-02-28T13:03:47;14.93;;;8.43;;
12042;SDS011;6082;49.306;12.862;2024-02-28T13:06:16;12.17;;;7.83;;
12042;SDS011;6082;49.306;12.862;2024-02-28T13:08:41;16.23;;;7.80;;
12042;SDS011;6082;49.306;12.862;2024-02-28T13:11:07;13.67;;;7.63;;
12042;SDS011;6082;49.306;12.862;2024-02-28T13:13:33;14.73;;;9.33;;
12042;SDS011;6082;49.306;12.862;2024-02-28T13:15:59;29.37;;;13.87;;
12042;SDS011;6082;49.306;12.862;2024-02-28T13:18:24;17.60;;;9.20;;
12042;SDS011;6082;49.306;12.862;2024-02-28T13:20:50;49.07;;;24.13;;
12042;SDS011;6082;49.306;12.862;2024-02-28T13:23:17;23.77;;;11.33;;
12042;SDS011;6082;49.306;12.862;2024-02-28T13:25:43;16.90;;;9.47;;
12042;SDS011;6082;49.306;12.862;2024-02-28T13:28:09;19.30;;;10.13;;
12042;SDS011;6082;49.306;12.862;2024-02-28T13:30:36;17.50;;;9.50;;
12042;SDS011;6082;49.306;12.862;2024-02-28T13:33:04;17.63;;;10.23;;
12042;SDS011;6082;49.306;12.862;2024-02-28T13:35:31;18.77;;;10.57;;
12042;SDS011;6082;49.306;12.862;2024-02-28T13:37:57;16.30;;;9.40;;
12042;SDS011;6082;49.306;12.862;2024-02-28T13:40:28;21.07;;;10.23;;
12042;SDS011;6082;49.306;12.862;2024-02-28T13:42:54;21.50;;;10.30;;
12042;SDS011;6082;49.306;12.862;2024-02-28T13:45:19;17.23;;;10.07;;
12042;SDS011;6082;49.306;12.862;2024-02-28T13:47:45;17.20;;;9.87;;
12042;SDS011;6082;49.306;12.862;2024-02-28T13:50:11;17.57;;;9.60;;
12042;SDS011;6082;49.306;12.862;2024-02-28T13:52:36;16.87;;;9.13;;
12042;SDS011;6082;49.306;12.862;2024-02-28T13:55:02;15.47;;;8.77;;
12042;SDS011;6082;49.306;12.862;2024-02-28T13:57:28;16.57;;;8.60;;
12042;SDS011;6082;49.306;12.862;2024-02-28T13:59:54;14.90;;;8.40;;
12042;SDS011;6082;49.306;12.862;2024-02-28T14:02:23;16.43;;;9.23;;
12042;SDS011;6082;49.306;12.862;2024-02-28T14:04:52;16.57;;;9.40;;
12042;SDS011;6082;49.306;12.862;2024-02-28T14:07:19;13.70;;;8.30;;
12042;SDS011;6082;49.306;12.862;2024-02-28T14:09:44;18.63;;;9.83;;
12042;SDS011;6082;49.306;12.862;2024-02-28T14:12:11;24.37;;;13.10;;
12042;SDS011;6082;49.306;12.862;2024-02-28T14:14:37;20.27;;;10.77;;
12042;SDS011;6082;49.306;12.862;2024-02-28T14:17:04;16.63;;;9.53;;
12042;SDS011;6082;49.306;12.862;2024-02-28T14:19:31;17.33;;;9.37;;
12042;SDS011;6082;49.306;12.862;2024-02-28T14:21:56;19.23;;;9.23;;
12042;SDS011;6082;49.306;12.862;2024-02-28T14:24:22;17.47;;;9.20;;
12042;SDS011;6082;49.306;12.862;2024-02-28T14:26:48;15.80;;;8.70;;